Time;durP1;ratioP1;P1;durP2;ratioP2;P2;SDS_P1;SDS_P2;PMS_P1;PMS_P2;Temp;Humidity;BMP_temperature;BMP_pressure;BME280_temperature;BME280_humidity;BME280_pressure;Samples;Min_cycle;Max_cycle;Signal;HPM_P1;HPM_P2
2023/10/14 00:01:03;;;;;;;1.80;0.60;;;22.00;1.00;;;;;;5156837;27;20464;-60
2023/10/14 00:03:33;;;;;;;1.00;0.50;;;22.00;1.00;;;;;;5156500;27;20773;-60
2023/10/14 00:06:02;;;;;;;0.90;0.50;;;22.00;1.00;;;;;;5156494;27;20430;-60
2023/10/14 00:08:32;;;;;;;1.40;0.43;;;22.00;1.00;;;;;;5156402;27;20423;-60
2023/10/14 00:11:05;;;;;;;0.80;0.50;;;21.90;1.00;;;;;;5155792;27;20422;-60
2023/10/14 00:13:40;;;;;;;1.20;0.50;;;21.90;1.00;;;;;;5156872;27;20464;-60
2023/10/14 00:16:12;;;;;;;1.00;0.50;;;21.80;1.00;;;;;;5156625;27;20460;-60
2023/10/14 00:18:44;;;;;;;1.10;0.50;;;21.80;1.00;;;;;;5156086;27;20512;-61
2023/10/14 00:21:14;;;;;;;1.20;0.60;;;21.80;1.00;;;;;;5156851;27;20503;-59
2023/10/14 00:23:42;;;;;;;0.80;0.50;;;21.80;1.00;;;;;;5156235;27;20425;-60
2023/10/14 00:26:14;;;;;;;1.10;0.60;;;21.90;1.00;;;;;;5156395;27;20524;-58
2023/10/14 00:28:45;;;;;;;1.00;0.70;;;21.90;1.00;;;;;;5156811;27;20432;-58
2023/10/14 00:31:12;;;;;;;1.40;0.60;;;21.90;1.00;;;;;;5156899;27;20428;-58
2023/10/14 00:33:39;;;;;;;0.98;0.60;;;21.90;1.00;;;;;;5156475;27;20469;-58
2023/10/14 00:36:10;;;;;;;1.15;0.60;;;21.90;1.00;;;;;;5156574;27;20424;-58
2023/10/14 00:38:39;;;;;;;1.73;0.70;;;21.90;1.00;;;;;;5156156;27;20661;-58
2023/10/14 00:41:09;;;;;;;2.50;0.70;;;21.90;1.00;;;;;;5156369;27;20415;-58
2023/10/14 00:43:36;;;;;;;2.70;0.80;;;21.90;1.00;;;;;;5156405;27;20444;-58
2023/10/14 00:46:14;;;;;;;1.40;0.70;;;21.90;1.00;;;;;;5155944;27;20416;-59
2023/10/14 00:48:44;;;;;;;1.10;0.70;;;21.90;1.00;;;;;;5156111;27;20483;-58
2023/10/14 00:51:13;;;;;;;2.40;0.70;;;21.90;1.00;;;;;;5157360;27;20842;-58
2023/10/14 00:53:51;;;;;;;1.00;0.60;;;21.90;1.00;;;;;;5160428;27;20583;-57
2023/10/14 00:56:20;;;;;;;1.70;0.70;;;22.00;1.00;;;;;;5160468;27;20523;-59
2023/10/14 00:58:51;;;;;;;1.60;0.70;;;21.90;1.00;;;;;;5160274;27;20411;-58
2023/10/14 01:01:18;;;;;;;1.40;0.60;;;21.90;1.00;;;;;;5160412;27;20420;-59
2023/10/14 01:03:50;;;;;;;1.45;0.75;;;21.90;1.00;;;;;;5159535;27;20428;-58
2023/10/14 01:06:23;;;;;;;2.00;0.80;;;21.80;1.00;;;;;;5159047;27;20424;-58
2023/10/14 01:08:52;;;;;;;1.30;0.70;;;21.70;1.00;;;;;;5159631;27;20471;-58
2023/10/14 01:11:24;;;;;;;1.73;0.70;;;21.60;1.00;;;;;;5159162;27;20469;-58
2023/10/14 01:13:52;;;;;;;3.08;0.80;;;21.50;1.00;;;;;;5157994;27;20483;-59
2023/10/14 01:16:24;;;;;;;1.60;0.80;;;21.40;1.00;;;;;;5159929;27;20424;-58
2023/10/14 01:18:52;;;;;;;1.80;0.70;;;21.30;1.00;;;;;;5159775;27;20466;-59
2023/10/14 01:21:19;;;;;;;3.00;0.80;;;21.30;1.00;;;;;;5160206;27;20487;-58
2023/10/14 01:23:58;;;;;;;1.40;0.80;;;21.20;1.00;;;;;;5159565;27;20417;-58
2023/10/14 01:26:25;;;;;;;2.40;0.90;;;21.10;1.00;;;;;;5159544;27;20420;-58
2023/10/14 01:28:59;;;;;;;2.10;0.90;;;21.10;1.00;;;;;;5159959;27;20520;-58
2023/10/14 01:31:57;;;;;;;1.30;0.80;;;21.00;1.00;;;;;;5160266;27;20424;-58
2023/10/14 01:34:29;;;;;;;1.63;0.80;;;20.90;48.90;;;;;;5160375;27;20852;-59
2023/10/14 01:37:01;;;;;;;1.60;0.80;;;20.90;1.00;;;;;;5159687;27;20423;-58
2023/10/14 01:39:30;;;;;;;3.10;0.90;;;20.90;8.10;;;;;;5159922;27;20456;-58
2023/10/14 01:41:57;;;;;;;1.38;0.88;;;20.80;99.90;;;;;;5159825;27;20517;-58
2023/10/14 01:44:26;;;;;;;2.00;0.88;;;20.80;99.90;;;;;;5158235;27;20413;-58
2023/10/14 01:46:55;;;;;;;2.03;0.95;;;20.70;99.90;;;;;;5157937;27;20419;-58
2023/10/14 01:49:23;;;;;;;1.10;0.90;;;20.70;99.90;;;;;;5159080;27;20493;-58
2023/10/14 01:51:50;;;;;;;2.90;0.90;;;20.70;99.90;;;;;;5159277;27;20420;-58
2023/10/14 01:54:17;;;;;;;2.40;1.00;;;20.70;99.90;;;;;;5159578;27;20420;-59
2023/10/14 01:56:47;;;;;;;1.75;0.90;;;20.60;99.90;;;;;;5159197;27;20824;-58
2023/10/14 01:59:16;;;;;;;2.25;0.90;;;20.50;99.90;;;;;;5159294;27;20409;-58
2023/10/14 02:01:43;;;;;;;1.43;0.80;;;20.40;99.90;;;;;;5159692;27;20420;-58
2023/10/14 02:04:10;;;;;;;2.00;0.90;;;20.40;1.00;;;;;;5158553;27;20424;-59
2023/10/14 02:06:43;;;;;;;2.10;0.90;;;20.30;1.00;;;;;;5156705;27;20416;-58
2023/10/14 02:09:10;;;;;;;1.70;0.90;;;20.30;1.00;;;;;;5158754;27;20429;-58
2023/10/14 02:11:38;;;;;;;1.73;0.90;;;20.30;1.00;;;;;;5158717;27;20415;-59
2023/10/14 02:14:07;;;;;;;1.30;0.90;;;20.20;1.00;;;;;;5159183;27;20417;-58
2023/10/14 02:16:42;;;;;;;3.25;1.00;;;20.30;1.00;;;;;;5158676;27;20515;-59
2023/10/14 02:19:20;;;;;;;2.50;1.00;;;20.20;1.00;;;;;;5116972;28;20416;-57
2023/10/14 02:21:48;;;;;;;1.80;0.90;;;20.20;1.00;;;;;;5117454;28;20527;-58
2023/10/14 02:24:18;;;;;;;2.10;1.00;;;20.10;1.00;;;;;;5117572;28;20424;-58
2023/10/14 02:26:48;;;;;;;1.95;0.90;;;20.10;1.00;;;;;;5117433;28;20519;-58
2023/10/14 02:29:16;;;;;;;2.00;1.00;;;20.10;1.00;;;;;;5117292;28;20843;-58
2023/10/14 02:31:44;;;;;;;1.90;0.90;;;20.10;1.00;;;;;;5117520;28;20431;-59
2023/10/14 02:34:14;;;;;;;1.33;0.90;;;20.20;1.00;;;;;;5116963;28;20428;-58
2023/10/14 02:36:48;;;;;;;2.17;0.90;;;20.30;1.00;;;;;;5116711;28;20553;-59
2023/10/14 02:39:16;;;;;;;1.35;0.90;;;20.20;1.00;;;;;;5116714;28;20494;-59
2023/10/14 02:41:45;;;;;;;3.00;1.00;;;20.20;1.00;;;;;;5117457;28;20773;-59
2023/10/14 02:44:27;;;;;;;2.30;0.88;;;20.20;1.00;;;;;;5117643;28;20785;-58
2023/10/14 02:47:01;;;;;;;1.40;0.90;;;20.20;1.00;;;;;;5117441;28;20460;-58
2023/10/14 02:49:33;;;;;;;2.30;1.00;;;20.20;1.00;;;;;;5116453;28;20439;-59
2023/10/14 02:52:04;;;;;;;2.10;0.90;;;20.30;1.00;;;;;;5117808;28;20525;-59
2023/10/14 02:54:34;;;;;;;2.70;0.90;;;20.30;1.00;;;;;;5117338;28;20424;-59
2023/10/14 02:57:07;;;;;;;2.30;1.30;;;20.20;1.00;;;;;;5117618;28;20422;-59
2023/10/14 02:59:43;;;;;;;2.50;0.90;;;20.20;1.00;;;;;;5116272;28;20412;-58
2023/10/14 03:02:17;;;;;;;2.60;0.90;;;20.30;1.00;;;;;;5116399;28;20913;-58
2023/10/14 03:05:08;;;;;;;2.03;0.90;;;20.30;1.00;;;;;;5117234;28;20424;-59
2023/10/14 03:07:44;;;;;;;1.60;0.90;;;20.30;1.00;;;;;;5117136;28;20427;-59
2023/10/14 03:10:13;;;;;;;1.60;0.90;;;20.30;1.00;;;;;;5116968;28;20843;-59
2023/10/14 03:12:48;;;;;;;1.60;0.90;;;20.40;1.00;;;;;;5116623;28;20836;-58
2023/10/14 03:15:19;;;;;;;1.90;0.90;;;20.40;1.00;;;;;;5116602;28;20435;-58
2023/10/14 03:17:53;;;;;;;2.10;0.90;;;20.40;99.90;;;;;;5134972;27;20508;-58
2023/10/14 03:20:35;;;;;;;2.30;0.90;;;20.40;99.90;;;;;;5157636;27;20409;-57
2023/10/14 03:23:09;;;;;;;1.90;1.20;;;20.50;99.90;;;;;;5157261;27;20518;-58
2023/10/14 03:25:36;;;;;;;2.80;0.80;;;20.50;99.90;;;;;;5153837;27;20421;-58
2023/10/14 03:28:08;;;;;;;2.95;1.00;;;20.50;99.90;;;;;;5155639;27;20868;-58
2023/10/14 03:30:37;;;;;;;2.17;1.10;;;20.50;99.90;;;;;;5157326;27;20431;-58
2023/10/14 03:33:10;;;;;;;1.75;0.88;;;20.40;99.90;;;;;;5156780;27;20727;-57
2023/10/14 03:35:37;;;;;;;2.40;1.00;;;20.50;99.90;;;;;;5155727;27;20416;-58
2023/10/14 03:38:15;;;;;;;4.60;1.00;;;20.50;99.90;;;;;;5157012;27;20412;-58
2023/10/14 03:41:02;;;;;;;3.33;1.00;;;20.40;99.90;;;;;;5157749;27;20417;-58
2023/10/14 03:43:29;;;;;;;1.70;1.00;;;20.40;99.90;;;;;;5157583;27;20424;-58
2023/10/14 03:46:03;;;;;;;2.80;0.90;;;20.50;99.90;;;;;;5156360;27;20728;-56
2023/10/14 03:48:45;;;;;;;1.90;1.00;;;20.40;99.90;;;;;;5155447;27;20423;-58
2023/10/14 03:51:13;;;;;;;1.58;0.90;;;20.50;99.90;;;;;;5154724;27;20424;-58
2023/10/14 03:53:40;;;;;;;2.67;1.10;;;20.50;99.90;;;;;;5155263;27;20762;-58
2023/10/14 03:56:07;;;;;;;2.28;0.90;;;20.50;99.90;;;;;;5156148;27;20783;-58
2023/10/14 03:58:36;;;;;;;2.13;1.00;;;20.60;99.90;;;;;;5156346;27;20832;-58
2023/10/14 04:01:04;;;;;;;2.00;1.10;;;20.60;99.90;;;;;;5156130;27;20732;-57
2023/10/14 04:03:40;;;;;;;1.55;0.90;;;20.60;99.90;;;;;;5156470;27;20420;-58
2023/10/14 04:06:09;;;;;;;2.40;1.00;;;20.50;99.90;;;;;;5156612;27;20553;-58
2023/10/14 04:08:47;;;;;;;2.92;1.00;;;20.50;99.90;;;;;;5157068;27;20856;-58
2023/10/14 04:11:16;;;;;;;1.40;1.00;;;20.40;99.90;;;;;;5156234;27;20424;-58
2023/10/14 04:13:51;;;;;;;2.60;1.00;;;20.40;99.90;;;;;;5156814;27;20417;-58
2023/10/14 04:16:27;;;;;;;3.20;1.00;;;20.40;1.00;;;;;;5156549;27;20420;-58
2023/10/14 04:19:03;;;;;;;1.60;0.93;;;20.50;1.00;;;;;;5156491;27;20438;-58
2023/10/14 04:21:36;;;;;;;1.73;0.80;;;20.50;99.90;;;;;;5156596;27;20538;-58
2023/10/14 04:24:20;;;;;;;1.90;1.00;;;20.50;1.00;;;;;;5156604;27;20420;-57
2023/10/14 04:26:49;;;;;;;2.88;0.90;;;20.60;99.90;;;;;;5156220;27;20516;-57
2023/10/14 04:29:34;;;;;;;2.30;1.00;;;20.70;99.90;;;;;;5156679;27;20447;-57
2023/10/14 04:32:13;;;;;;;2.00;1.00;;;20.60;99.90;;;;;;5154784;27;20436;-58
2023/10/14 04:34:44;;;;;;;2.40;1.30;;;20.60;99.90;;;;;;5156456;27;20421;-57
2023/10/14 04:37:16;;;;;;;3.70;0.90;;;20.70;99.90;;;;;;5155293;27;20618;-57
2023/10/14 04:39:47;;;;;;;2.20;1.00;;;20.70;99.90;;;;;;5155581;27;20727;-57
2023/10/14 04:44:59;;;;;;;1.80;1.10;;;20.50;99.90;;;;;;5144271;27;20735;-57
2023/10/14 04:47:35;;;;;;;2.05;0.80;;;20.20;99.90;;;;;;5154968;27;20405;-57
2023/10/14 04:50:13;;;;;;;1.45;0.80;;;20.00;99.90;;;;;;5155142;27;20427;-57
2023/10/14 04:52:41;;;;;;;1.90;0.90;;;19.80;99.90;;;;;;5155281;27;20525;-56
2023/10/14 04:55:20;;;;;;;2.30;0.90;;;19.70;99.90;;;;;;5156283;27;20929;-58
2023/10/14 04:58:05;;;;;;;3.55;1.00;;;19.50;1.00;;;;;;5156231;27;20424;-59
2023/10/14 05:00:33;;;;;;;3.78;0.90;;;19.40;1.00;;;;;;5155842;27;20423;-57
2023/10/14 05:03:01;;;;;;;1.80;1.10;;;19.30;1.00;;;;;;5156116;27;20900;-55
2023/10/14 05:05:33;;;;;;;1.80;1.08;;;19.30;1.00;;;;;;5156111;27;20413;-57
2023/10/14 05:08:03;;;;;;;2.38;0.80;;;19.10;1.00;;;;;;5156024;27;20416;-53
2023/10/14 05:10:30;;;;;;;1.90;0.90;;;19.10;1.00;;;;;;5155537;27;20452;-57
2023/10/14 05:12:58;;;;;;;1.52;0.90;;;19.10;1.00;;;;;;5155544;27;21002;-57
2023/10/14 05:15:27;;;;;;;2.13;0.90;;;19.10;1.00;;;;;;5154933;27;20482;-57
2023/10/14 05:18:00;;;;;;;2.20;0.90;;;19.20;1.00;;;;;;5155439;27;20424;-54
2023/10/14 05:20:49;;;;;;;1.70;0.90;;;19.20;1.00;;;;;;5154754;27;20879;-58
2023/10/14 05:23:19;;;;;;;1.60;0.80;;;19.20;1.00;;;;;;5154772;27;20539;-56
2023/10/14 05:25:49;;;;;;;2.25;0.93;;;19.30;1.00;;;;;;5154885;27;20420;-57
2023/10/14 05:28:17;;;;;;;2.97;0.90;;;19.30;1.00;;;;;;5153264;27;20520;-57
2023/10/14 05:30:48;;;;;;;2.03;1.00;;;19.30;1.00;;;;;;5154120;27;20454;-56
2023/10/14 05:33:16;;;;;;;4.30;1.10;;;19.30;1.00;;;;;;5154021;27;20412;-55
2023/10/14 05:35:44;;;;;;;1.63;0.80;;;19.30;1.00;;;;;;5153897;27;20488;-56
2023/10/14 05:38:14;;;;;;;1.33;0.80;;;19.20;1.00;;;;;;5153778;27;20404;-57
2023/10/14 05:40:42;;;;;;;2.13;0.85;;;19.20;1.00;;;;;;5158225;27;20704;-58
2023/10/14 05:43:09;;;;;;;1.60;0.80;;;19.10;1.00;;;;;;5158177;27;20417;-57
2023/10/14 05:45:37;;;;;;;1.70;0.77;;;19.10;1.00;;;;;;5157820;27;20470;-56
2023/10/14 05:48:07;;;;;;;2.00;0.90;;;19.20;1.00;;;;;;5157556;27;20416;-57
2023/10/14 05:50:35;;;;;;;2.25;0.90;;;19.20;1.00;;;;;;5156575;27;20432;-56
2023/10/14 05:53:07;;;;;;;2.22;1.00;;;19.30;1.00;;;;;;5158028;27;20423;-57
2023/10/14 05:55:34;;;;;;;1.60;0.80;;;19.30;1.00;;;;;;5159362;27;20519;-57
2023/10/14 05:58:02;;;;;;;2.00;0.90;;;19.30;1.00;;;;;;5159392;27;20416;-56
2023/10/14 06:00:29;;;;;;;1.40;0.80;;;19.20;1.00;;;;;;5153451;27;20456;-58
2023/10/14 06:02:57;;;;;;;2.30;0.90;;;19.30;1.00;;;;;;5150541;27;20424;-56
2023/10/14 06:05:26;;;;;;;2.30;0.80;;;19.20;1.00;;;;;;5157243;27;20418;-55
2023/10/14 06:08:05;;;;;;;3.50;0.82;;;19.10;1.00;;;;;;5158296;27;20764;-57
2023/10/14 06:10:36;;;;;;;2.20;0.90;;;19.10;1.00;;;;;;5158091;27;20436;-58
2023/10/14 06:13:05;;;;;;;1.42;0.88;;;19.10;1.00;;;;;;5157744;27;20456;-58
2023/10/14 06:15:37;;;;;;;2.30;0.90;;;19.10;1.00;;;;;;5157365;27;20421;-56
2023/10/14 06:18:05;;;;;;;1.83;0.70;;;19.10;1.00;;;;;;5157851;27;20420;-56
2023/10/14 06:20:33;;;;;;;1.80;0.80;;;19.10;1.00;;;;;;5158215;27;20448;-56
2023/10/14 06:23:00;;;;;;;1.50;0.80;;;19.00;1.00;;;;;;5158842;27;20435;-57
2023/10/14 06:25:29;;;;;;;1.92;0.73;;;19.00;1.00;;;;;;5155310;27;20451;-57
2023/10/14 06:27:58;;;;;;;1.88;0.88;;;19.10;99.90;;;;;;5157234;27;20776;-57
2023/10/14 06:30:25;;;;;;;1.60;0.90;;;19.10;99.90;;;;;;5155680;27;20424;-58
2023/10/14 06:32:58;;;;;;;1.35;0.90;;;19.10;99.90;;;;;;5156737;27;20885;-58
2023/10/14 06:35:28;;;;;;;1.20;0.80;;;19.20;1.00;;;;;;5155720;27;20413;-57
2023/10/14 06:37:58;;;;;;;1.60;0.70;;;19.20;99.90;;;;;;5150691;27;20426;-57
2023/10/14 06:40:32;;;;;;;1.40;0.80;;;19.20;99.90;;;;;;5155388;27;21019;-58
2023/10/14 06:43:01;;;;;;;1.40;0.90;;;19.20;99.90;;;;;;5156101;27;20429;-54
2023/10/14 06:45:31;;;;;;;2.30;0.80;;;19.10;99.90;;;;;;5156181;27;20572;-57
2023/10/14 06:47:58;;;;;;;1.27;0.90;;;19.10;99.90;;;;;;5157215;27;20417;-59
2023/10/14 06:50:26;;;;;;;3.42;0.80;;;19.30;99.90;;;;;;5155762;27;20507;-56
2023/10/14 06:52:58;;;;;;;1.85;0.75;;;19.20;99.90;;;;;;5156887;27;20416;-58
2023/10/14 06:55:26;;;;;;;1.27;0.80;;;19.30;99.90;;;;;;5156680;27;20740;-58
2023/10/14 06:57:55;;;;;;;1.40;0.70;;;19.10;99.90;;;;;;5156607;27;20424;-58
2023/10/14 07:00:26;;;;;;;1.30;0.70;;;19.10;99.90;;;;;;5156470;27;20832;-56
2023/10/14 07:02:54;;;;;;;2.20;0.70;;;19.10;99.90;;;;;;5151365;27;20432;-58
2023/10/14 07:05:22;;;;;;;1.60;0.60;;;19.10;99.90;;;;;;5155284;27;20445;-57
2023/10/14 07:07:49;;;;;;;0.90;0.60;;;19.10;99.90;;;;;;5145678;27;20882;-58
2023/10/14 07:10:17;;;;;;;1.70;0.70;;;19.20;99.90;;;;;;5156067;27;20724;-55
2023/10/14 07:12:44;;;;;;;1.10;0.60;;;19.30;1.00;;;;;;5155104;27;20445;-60
2023/10/14 07:15:13;;;;;;;2.28;0.80;;;19.40;7.00;;;;;;5156571;27;20781;-59
2023/10/14 07:17:48;;;;;;;1.10;0.60;;;19.20;99.90;;;;;;5156688;27;20476;-58
2023/10/14 07:20:16;;;;;;;1.10;0.60;;;19.30;1.00;;;;;;5156984;27;20417;-58
2023/10/14 07:22:43;;;;;;;2.55;0.70;;;19.20;99.90;;;;;;5156385;27;20511;-58
2023/10/14 07:25:10;;;;;;;1.20;0.70;;;19.40;91.70;;;;;;5156211;27;20424;-58
2023/10/14 07:27:38;;;;;;;2.50;0.70;;;19.60;1.00;;;;;;5156809;27;20477;-52
2023/10/14 07:30:13;;;;;;;0.90;0.60;;;19.80;99.90;;;;;;5156794;27;20420;-52
2023/10/14 07:32:44;;;;;;;0.90;0.60;;;19.90;99.90;;;;;;5156071;27;20417;-53
2023/10/14 07:35:13;;;;;;;1.73;0.60;;;20.00;1.00;;;;;;5155301;27;20412;-52
2023/10/14 07:37:43;;;;;;;1.88;0.60;;;20.00;1.00;;;;;;5156241;27;20584;-51
2023/10/14 07:40:22;;;;;;;0.70;0.50;;;20.00;99.90;;;;;;5155646;27;20492;-55
2023/10/14 07:42:53;;;;;;;1.48;0.60;;;20.00;1.00;;;;;;5156043;27;20464;-56
2023/10/14 07:45:28;;;;;;;2.30;0.50;;;20.00;1.00;;;;;;5155936;27;20464;-55
2023/10/14 07:47:57;;;;;;;0.88;0.50;;;20.00;1.00;;;;;;5138594;27;20757;-55
2023/10/14 07:50:24;;;;;;;1.10;0.50;;;19.90;1.00;;;;;;5155006;27;20754;-53
2023/10/14 07:52:54;;;;;;;1.60;0.60;;;19.90;1.00;;;;;;5155196;27;20416;-54
2023/10/14 07:55:25;;;;;;;1.02;0.50;;;19.90;1.00;;;;;;5154305;27;20488;-56
2023/10/14 07:57:52;;;;;;;1.00;0.50;;;19.90;1.00;;;;;;5143357;27;20475;-56
2023/10/14 08:00:26;;;;;;;1.42;0.50;;;20.00;1.00;;;;;;5152259;27;20417;-53
2023/10/14 08:02:52;;;;;;;1.00;0.50;;;20.00;1.00;;;;;;5152988;27;20427;-55
2023/10/14 08:05:21;;;;;;;0.90;0.50;;;20.10;99.90;;;;;;5146495;27;20491;-54
2023/10/14 08:07:48;;;;;;;1.48;0.52;;;20.20;1.00;;;;;;5146026;27;20420;-56
2023/10/14 08:10:18;;;;;;;1.00;0.50;;;20.10;99.90;;;;;;5152248;27;20477;-54
2023/10/14 08:12:46;;;;;;;0.90;0.50;;;20.00;99.90;;;;;;5143624;27;20425;-54
2023/10/14 08:15:17;;;;;;;1.48;0.50;;;19.90;99.90;;;;;;5155216;27;20424;-54
2023/10/14 08:17:44;;;;;;;1.95;0.60;;;20.00;1.00;;;;;;5155472;27;20836;-56
2023/10/14 08:20:18;;;;;;;1.10;0.60;;;20.00;1.00;;;;;;5154812;27;20820;-57
2023/10/14 08:22:49;;;;;;;2.30;0.50;;;20.20;99.90;;;;;;5153946;27;20812;-57
2023/10/14 08:25:18;;;;;;;0.95;0.50;;;20.30;99.90;;;;;;5153348;27;20442;-54
2023/10/14 08:27:47;;;;;;;1.20;0.50;;;20.40;99.90;;;;;;5138345;27;20852;-56
2023/10/14 08:30:16;;;;;;;0.70;0.50;;;20.40;20.80;;;;;;5134833;27;20434;-57
2023/10/14 08:32:44;;;;;;;1.05;0.45;;;20.50;1.00;;;;;;5129851;27;20499;-58
2023/10/14 08:35:19;;;;;;;2.10;0.40;;;20.50;1.00;;;;;;5133390;27;20513;-54
2023/10/14 08:37:51;;;;;;;0.70;0.30;;;20.40;1.00;;;;;;5144359;27;20851;-56
2023/10/14 08:40:19;;;;;;;0.60;0.30;;;20.30;1.00;;;;;;5155280;27;20489;-55
2023/10/14 08:42:51;;;;;;;1.10;0.30;;;20.40;1.00;;;;;;5140323;27;20920;-55
2023/10/14 08:45:25;;;;;;;0.85;0.40;;;20.50;1.00;;;;;;5134478;27;20422;-56
2023/10/14 08:47:54;;;;;;;0.50;0.30;;;20.60;1.00;;;;;;5137214;27;20529;-53
2023/10/14 08:50:23;;;;;;;2.70;0.30;;;20.50;1.00;;;;;;5135221;27;20814;-62
2023/10/14 08:52:54;;;;;;;0.80;0.37;;;20.40;1.00;;;;;;5137669;27;20417;-59
2023/10/14 08:55:22;;;;;;;0.90;0.30;;;20.50;1.00;;;;;;5153319;27;20454;-56
2023/10/14 08:57:50;;;;;;;0.90;0.30;;;20.70;1.00;;;;;;5134265;27;20434;-52
2023/10/14 09:00:23;;;;;;;0.70;0.40;;;20.60;1.00;;;;;;5135677;27;20494;-57
2023/10/14 09:02:53;;;;;;;1.20;0.40;;;20.80;1.00;;;;;;5140821;27;20425;-55
2023/10/14 09:05:20;;;;;;;0.70;0.40;;;20.90;1.00;;;;;;5154930;27;20413;-55
2023/10/14 09:07:49;;;;;;;1.80;0.40;;;21.10;1.00;;;;;;5155289;27;20413;-53
2023/10/14 09:10:19;;;;;;;1.02;0.30;;;21.30;1.00;;;;;;5148139;27;20773;-56
2023/10/14 09:12:55;;;;;;;0.80;0.30;;;21.10;99.90;;;;;;5153860;27;20489;-54
2023/10/14 09:15:22;;;;;;;1.30;0.20;;;20.90;99.90;;;;;;5158335;27;20543;-55
2023/10/14 09:17:49;;;;;;;0.40;0.20;;;20.60;1.00;;;;;;5157278;27;20451;-56
2023/10/14 09:20:29;;;;;;;0.33;0.10;;;20.20;1.00;;;;;;5158192;27;20452;-55
2023/10/14 09:23:14;;;;;;;0.30;0.10;;;19.70;1.00;;;;;;5158741;27;20405;-54
2023/10/14 09:25:44;;;;;;;0.40;0.20;;;19.10;99.90;;;;;;5160119;27;20434;-55
2023/10/14 09:28:11;;;;;;;0.80;0.20;;;18.70;1.00;;;;;;5159632;27;20417;-55
2023/10/14 09:30:44;;;;;;;0.40;0.20;;;18.00;1.00;;;;;;5150496;27;20442;-54
2023/10/14 09:33:15;;;;;;;0.40;0.20;;;18.20;1.00;;;;;;5138265;27;20406;-53
2023/10/14 09:35:45;;;;;;;0.40;0.20;;;18.40;1.00;;;;;;5149989;27;20456;-50
2023/10/14 09:38:15;;;;;;;0.50;0.20;;;18.50;1.00;;;;;;5151084;27;20424;-54
2023/10/14 09:40:44;;;;;;;0.70;0.20;;;18.50;1.00;;;;;;5145787;27;20787;-51
2023/10/14 09:43:12;;;;;;;0.50;0.20;;;18.30;1.00;;;;;;5135489;27;20423;-53
2023/10/14 09:45:44;;;;;;;0.40;0.20;;;18.10;1.00;;;;;;5136114;27;20426;-55
2023/10/14 09:48:14;;;;;;;0.40;0.20;;;18.00;1.00;;;;;;5136136;27;20433;-55
2023/10/14 09:50:43;;;;;;;0.40;0.20;;;18.10;1.00;;;;;;5136284;27;20489;-55
2023/10/14 09:53:13;;;;;;;0.53;0.27;;;18.10;1.00;;;;;;5136859;27;20479;-54
2023/10/14 09:55:44;;;;;;;0.50;0.20;;;17.80;1.00;;;;;;5137233;27;20410;-54
2023/10/14 09:58:18;;;;;;;0.40;0.20;;;17.80;1.00;;;;;;5136864;27;21086;-56
2023/10/14 10:00:47;;;;;;;0.40;0.20;;;17.70;1.00;;;;;;5137462;27;20427;-55
2023/10/14 10:03:16;;;;;;;0.40;0.20;;;17.90;1.00;;;;;;5137758;27;20454;-54
2023/10/14 10:05:51;;;;;;;1.70;0.20;;;17.90;1.00;;;;;;5136674;27;20472;-54
2023/10/14 10:08:39;;;;;;;0.45;0.20;;;18.10;1.00;;;;;;5135811;27;20418;-54
2023/10/14 10:11:10;;;;;;;0.40;0.20;;;18.10;1.00;;;;;;5136649;27;20762;-56
2023/10/14 10:13:40;;;;;;;0.40;0.15;;;18.30;1.00;;;;;;5137531;27;20426;-56
2023/10/14 10:16:07;;;;;;;0.40;0.10;;;18.40;1.00;;;;;;5136845;27;20519;-55
2023/10/14 10:18:51;;;;;;;0.40;0.10;;;18.50;1.00;;;;;;5134064;27;20418;-56
2023/10/14 10:21:19;;;;;;;0.30;0.10;;;18.80;99.90;;;;;;5135830;27;20423;-55
2023/10/14 10:23:50;;;;;;;0.30;0.20;;;18.70;99.90;;;;;;5136254;27;20513;-54
2023/10/14 10:26:19;;;;;;;0.30;0.10;;;18.80;17.30;;;;;;5141515;27;20760;-53
2023/10/14 10:28:46;;;;;;;0.30;0.10;;;18.90;37.50;;;;;;5136363;27;20430;-54
2023/10/14 10:31:17;;;;;;;0.30;0.20;;;18.80;99.90;;;;;;5137464;27;20418;-54
2023/10/14 10:34:01;;;;;;;0.50;0.20;;;18.70;1.00;;;;;;5134365;27;20427;-55
2023/10/14 10:36:29;;;;;;;0.30;0.10;;;18.70;1.00;;;;;;5152102;27;20438;-55
2023/10/14 10:39:06;;;;;;;0.40;0.20;;;18.80;1.00;;;;;;5150522;27;21052;-55
2023/10/14 10:41:37;;;;;;;0.30;0.20;;;19.00;99.90;;;;;;5148262;27;20474;-55
2023/10/14 10:44:08;;;;;;;0.30;0.10;;;19.10;1.00;;;;;;5140924;27;20466;-56
2023/10/14 10:46:39;;;;;;;0.50;0.20;;;19.20;99.90;;;;;;5145179;27;20464;-57
2023/10/14 10:49:07;;;;;;;0.30;0.10;;;18.80;1.00;;;;;;5144739;27;20517;-57
2023/10/14 10:51:35;;;;;;;0.30;0.10;;;18.70;1.00;;;;;;5137113;27;20430;-53
2023/10/14 10:54:02;;;;;;;0.50;0.20;;;18.50;99.90;;;;;;5134777;27;20418;-56
2023/10/14 10:56:30;;;;;;;0.40;0.20;;;18.30;1.00;;;;;;5136562;27;20786;-56
2023/10/14 10:59:04;;;;;;;0.60;0.20;;;18.40;1.00;;;;;;5136117;27;20417;-55
2023/10/14 11:01:33;;;;;;;0.43;0.20;;;18.60;99.90;;;;;;5135409;27;20431;-58
2023/10/14 11:04:03;;;;;;;0.63;0.20;;;18.50;99.90;;;;;;5135548;27;20516;-54
2023/10/14 11:06:31;;;;;;;0.70;0.20;;;18.50;1.00;;;;;;5134231;27;20422;-58
2023/10/14 11:08:59;;;;;;;0.40;0.20;;;18.60;1.00;;;;;;5136577;27;20707;-55
2023/10/14 11:11:31;;;;;;;0.40;0.20;;;18.50;1.00;;;;;;5137099;27;20414;-56
2023/10/14 11:14:00;;;;;;;0.55;0.20;;;18.00;1.00;;;;;;5136206;27;20415;-56
2023/10/14 11:16:29;;;;;;;0.45;0.20;;;17.60;1.00;;;;;;5135955;27;20422;-53
2023/10/14 11:18:58;;;;;;;0.50;0.20;;;17.70;1.00;;;;;;5143496;27;20428;-53
2023/10/14 11:21:28;;;;;;;0.38;0.20;;;17.70;1.00;;;;;;5156877;27;20420;-57
2023/10/14 11:23:55;;;;;;;0.40;0.20;;;17.40;1.00;;;;;;5153620;27;20503;-55
2023/10/14 11:26:24;;;;;;;0.30;0.10;;;17.20;1.00;;;;;;5154713;27;20425;-54
2023/10/14 11:28:51;;;;;;;0.30;0.10;;;17.00;1.00;;;;;;5155586;27;20456;-54
2023/10/14 11:31:24;;;;;;;0.40;0.20;;;17.00;1.00;;;;;;5155993;27;20448;-57
2023/10/14 11:33:55;;;;;;;0.30;0.17;;;17.10;1.10;;;;;;5156756;27;20404;-52
2023/10/14 11:36:26;;;;;;;0.40;0.20;;;17.30;1.00;;;;;;5155227;27;20424;-56
2023/10/14 11:38:58;;;;;;;0.88;0.20;;;17.20;4.80;;;;;;5156013;27;20492;-55
2023/10/14 11:41:27;;;;;;;0.40;0.10;;;17.20;13.70;;;;;;5155020;27;20417;-53
2023/10/14 11:43:54;;;;;;;0.57;0.20;;;17.50;1.00;;;;;;5154328;27;20412;-55
2023/10/14 11:46:22;;;;;;;1.10;0.20;;;17.50;1.00;;;;;;5155094;27;20421;-56
2023/10/14 11:48:49;;;;;;;0.30;0.10;;;17.50;1.00;;;;;;5155733;27;20432;-57
2023/10/14 11:51:21;;;;;;;0.50;0.20;;;17.60;1.00;;;;;;5156305;27;20424;-56
2023/10/14 11:53:52;;;;;;;0.70;0.20;;;17.60;1.00;;;;;;5154827;27;20443;-55
2023/10/14 11:56:20;;;;;;;0.50;0.20;;;17.50;1.00;;;;;;5151787;27;20461;-55
2023/10/14 11:58:49;;;;;;;0.95;0.20;;;17.50;1.00;;;;;;5152770;27;20834;-66
2023/10/14 12:01:16;;;;;;;0.40;0.20;;;17.20;1.00;;;;;;5153749;27;20424;-58
2023/10/14 12:03:44;;;;;;;0.40;0.10;;;17.10;1.00;;;;;;5152854;27;20823;-61
2023/10/14 12:06:12;;;;;;;0.40;0.20;;;16.90;1.00;;;;;;5154626;27;20431;-57
2023/10/14 12:08:42;;;;;;;0.50;0.20;;;16.70;28.10;;;;;;5155013;27;20442;-56
2023/10/14 12:11:10;;;;;;;0.80;0.10;;;16.50;54.40;;;;;;5155916;27;20504;-56
2023/10/14 12:13:37;;;;;;;0.52;0.20;;;16.60;86.70;;;;;;5155761;27;20461;-57
2023/10/14 12:16:06;;;;;;;0.30;0.20;;;16.70;51.70;;;;;;5155577;27;20530;-56
2023/10/14 12:18:35;;;;;;;0.30;0.10;;;16.80;56.60;;;;;;5154743;27;20432;-57
2023/10/14 12:21:03;;;;;;;0.40;0.20;;;16.90;50.90;;;;;;5153576;27;20822;-56
2023/10/14 12:23:32;;;;;;;0.40;0.20;;;17.10;4.90;;;;;;5151965;27;20512;-56
2023/10/14 12:26:01;;;;;;;0.50;0.10;;;17.10;9.70;;;;;;5153484;27;20479;-57
2023/10/14 12:28:31;;;;;;;0.30;0.20;;;17.20;1.00;;;;;;5154607;27;20423;-57
2023/10/14 12:31:00;;;;;;;0.40;0.20;;;17.10;1.00;;;;;;5155447;27;20765;-55
2023/10/14 12:33:31;;;;;;;0.47;0.10;;;16.90;1.00;;;;;;5154442;27;20536;-56
2023/10/14 12:35:59;;;;;;;0.30;0.17;;;16.70;16.70;;;;;;5153222;27;20421;-53
2023/10/14 12:38:27;;;;;;;0.40;0.20;;;16.80;12.70;;;;;;5153287;27;20859;-56
2023/10/14 12:40:55;;;;;;;0.40;0.20;;;16.70;42.20;;;;;;5150484;27;20412;-51
2023/10/14 12:43:32;;;;;;;0.30;0.10;;;16.50;84.10;;;;;;5146040;27;20538;-55
2023/10/14 12:46:12;;;;;;;0.40;0.20;;;16.40;97.50;;;;;;5150274;27;20481;-57
2023/10/14 12:48:40;;;;;;;0.40;0.17;;;16.50;99.90;;;;;;5159309;27;20429;-54
2023/10/14 12:51:11;;;;;;;0.40;0.17;;;16.60;73.30;;;;;;5158515;27;20428;-57
2023/10/14 12:53:45;;;;;;;0.50;0.20;;;16.60;48.70;;;;;;5158016;27;20421;-58
2023/10/14 12:56:14;;;;;;;0.50;0.20;;;16.70;16.90;;;;;;5158717;27;20502;-55
2023/10/14 12:58:43;;;;;;;0.30;0.10;;;16.80;14.40;;;;;;5159532;27;20420;-55
2023/10/14 13:01:16;;;;;;;0.40;0.20;;;16.70;1.00;;;;;;5158120;27;20455;-56
2023/10/14 13:03:46;;;;;;;0.40;0.20;;;16.60;1.00;;;;;;5158239;27;20409;-57
2023/10/14 13:06:13;;;;;;;0.30;0.10;;;16.30;1.00;;;;;;5158645;27;20441;-56
2023/10/14 13:08:42;;;;;;;1.00;0.20;;;16.30;22.70;;;;;;5159110;27;21464;-54
2023/10/14 13:11:14;;;;;;;0.90;0.10;;;16.60;1.00;;;;;;5159153;27;20413;-57
2023/10/14 13:13:43;;;;;;;0.40;0.20;;;16.60;1.00;;;;;;5157745;27;20609;-57